Time;durP1;ratioP1;P1;durP2;ratioP2;P2;SDS_P1;SDS_P2;PMS_P1;PMS_P2;Temp;Humidity;BMP_temperature;BMP_pressure;BME280_temperature;BME280_humidity;BME280_pressure;Samples;Min_cycle;Max_cycle;Signal;HPM_P1;HPM_P2
2021/09/24 00:00:24;;;;;;;5.53;1.90;;;14.70;99.90;;;;;;5115134;27;20015;-67
2021/09/24 00:02:50;;;;;;;7.05;2.80;;;14.70;99.90;;;;;;5116977;27;20031;-68
2021/09/24 00:05:15;;;;;;;4.68;2.10;;;14.70;99.90;;;;;;5111720;27;20482;-67
2021/09/24 00:07:41;;;;;;;4.90;2.25;;;14.80;99.90;;;;;;5116223;27;20126;-67
2021/09/24 00:10:08;;;;;;;4.90;2.17;;;14.80;99.90;;;;;;5110913;27;20031;-67
2021/09/24 00:12:35;;;;;;;5.75;2.08;;;14.80;99.90;;;;;;5113409;27;20016;-67
2021/09/24 00:15:01;;;;;;;4.75;2.00;;;14.80;99.90;;;;;;5110587;27;20027;-66
2021/09/24 00:17:27;;;;;;;5.72;2.30;;;14.80;99.90;;;;;;5116295;27;20102;-66
2021/09/24 00:19:53;;;;;;;8.13;2.53;;;14.90;99.90;;;;;;5108063;27;20116;-66
2021/09/24 00:22:19;;;;;;;5.40;2.15;;;14.80;99.90;;;;;;5110912;27;20016;-66
2021/09/24 00:24:45;;;;;;;7.25;2.53;;;14.80;99.90;;;;;;5117315;27;20034;-66
2021/09/24 00:27:10;;;;;;;4.38;2.08;;;14.80;99.90;;;;;;5107099;28;20114;-67
2021/09/24 00:29:36;;;;;;;6.85;2.58;;;14.80;99.90;;;;;;5120679;27;20076;-67
2021/09/24 00:32:02;;;;;;;10.30;2.80;;;14.80;99.90;;;;;;5108848;27;20509;-67
2021/09/24 00:34:27;;;;;;;6.82;2.55;;;14.70;99.90;;;;;;5109177;28;20055;-66
2021/09/24 00:36:53;;;;;;;5.43;2.20;;;14.70;99.90;;;;;;5117489;27;20070;-67
2021/09/24 00:39:19;;;;;;;4.03;2.30;;;14.80;99.90;;;;;;5110031;27;20027;-67
2021/09/24 00:41:44;;;;;;;6.97;2.15;;;14.80;99.90;;;;;;5112235;27;20027;-66
2021/09/24 00:44:10;;;;;;;3.60;1.85;;;14.80;99.90;;;;;;5124360;27;20051;-66
2021/09/24 00:46:35;;;;;;;10.82;3.65;;;14.80;99.90;;;;;;5120770;27;20030;-67
2021/09/24 00:49:01;;;;;;;8.27;3.15;;;14.80;99.90;;;;;;5117469;27;20015;-66
2021/09/24 00:51:27;;;;;;;10.20;3.92;;;14.80;99.90;;;;;;5114839;27;20031;-66
2021/09/24 00:53:53;;;;;;;6.07;2.78;;;14.80;99.90;;;;;;5117030;27;20069;-66
2021/09/24 00:56:19;;;;;;;7.85;3.50;;;14.80;99.90;;;;;;5120072;27;20012;-66
2021/09/24 00:58:45;;;;;;;7.25;3.50;;;14.80;99.90;;;;;;5117544;27;20023;-66
2021/09/24 01:01:10;;;;;;;9.00;3.88;;;14.80;99.90;;;;;;5108511;27;20035;-67
2021/09/24 01:03:36;;;;;;;9.10;3.28;;;14.80;99.90;;;;;;5111040;27;20023;-66
2021/09/24 01:06:02;;;;;;;10.05;3.67;;;14.90;99.90;;;;;;5110081;28;20358;-66
2021/09/24 01:08:30;;;;;;;11.40;4.43;;;14.80;99.90;;;;;;5108586;28;20032;-66
2021/09/24 01:10:56;;;;;;;10.70;4.10;;;14.80;99.90;;;;;;5111974;28;20022;-66
2021/09/24 01:13:22;;;;;;;12.02;3.95;;;14.80;99.90;;;;;;5110656;28;20050;-67
2021/09/24 01:15:47;;;;;;;10.20;3.95;;;14.80;99.90;;;;;;5106765;28;20030;-67
2021/09/24 01:18:13;;;;;;;10.30;3.88;;;14.90;99.90;;;;;;5110957;28;20061;-66
2021/09/24 01:20:39;;;;;;;6.65;2.67;;;14.90;99.90;;;;;;5107577;28;20024;-66
2021/09/24 01:23:04;;;;;;;8.77;3.25;;;14.90;99.90;;;;;;5107812;28;20110;-67
2021/09/24 01:25:30;;;;;;;6.15;2.53;;;15.00;99.90;;;;;;5114072;28;20128;-67
2021/09/24 01:27:56;;;;;;;12.23;4.20;;;14.90;99.90;;;;;;5107526;28;20015;-66
2021/09/24 01:30:22;;;;;;;11.43;3.72;;;15.00;99.90;;;;;;5116668;28;20023;-67
2021/09/24 01:32:49;;;;;;;10.48;4.13;;;14.90;99.90;;;;;;5113560;28;20015;-67
2021/09/24 01:35:15;;;;;;;13.77;4.35;;;14.90;99.90;;;;;;5110966;28;20015;-67
2021/09/24 01:37:42;;;;;;;10.15;4.35;;;15.00;99.90;;;;;;5114035;28;20463;-66
2021/09/24 01:40:10;;;;;;;11.82;4.07;;;15.00;99.90;;;;;;5110012;28;20091;-67
2021/09/24 01:42:36;;;;;;;11.73;5.03;;;15.00;99.90;;;;;;5119929;28;20027;-66
2021/09/24 01:45:02;;;;;;;11.30;5.00;;;15.10;99.90;;;;;;5107865;28;20023;-68
2021/09/24 01:47:27;;;;;;;9.23;3.90;;;15.10;99.90;;;;;;5120304;28;20077;-66
2021/09/24 01:49:53;;;;;;;10.15;3.88;;;15.00;99.90;;;;;;5115644;28;20372;-66
2021/09/24 01:52:18;;;;;;;8.80;3.78;;;15.10;99.90;;;;;;5118183;28;20050;-66
2021/09/24 01:54:44;;;;;;;9.80;3.42;;;15.10;99.90;;;;;;5116229;28;20130;-67
2021/09/24 01:57:11;;;;;;;12.65;4.53;;;15.10;99.90;;;;;;5116848;28;20472;-67
2021/09/24 01:59:38;;;;;;;11.25;4.10;;;15.10;99.90;;;;;;5121142;28;20015;-66
2021/09/24 02:02:03;;;;;;;11.60;4.38;;;15.10;99.90;;;;;;5114201;27;20693;-66
2021/09/24 02:04:29;;;;;;;14.77;5.07;;;15.10;99.90;;;;;;5117604;28;20070;-67
2021/09/24 02:06:55;;;;;;;11.93;3.97;;;15.10;99.90;;;;;;5110720;27;20040;-66
2021/09/24 02:09:20;;;;;;;12.45;4.95;;;15.10;99.90;;;;;;5108994;28;20012;-67
2021/09/24 02:11:46;;;;;;;9.93;4.15;;;15.10;99.90;;;;;;5109904;28;20019;-67
2021/09/24 02:14:11;;;;;;;8.90;3.67;;;15.00;99.90;;;;;;5112858;28;20027;-66
2021/09/24 02:16:39;;;;;;;11.15;4.05;;;15.00;99.90;;;;;;5106882;28;20459;-66
2021/09/24 02:19:04;;;;;;;10.68;4.38;;;15.00;99.90;;;;;;5111404;28;20020;-66
2021/09/24 02:21:30;;;;;;;12.25;4.35;;;15.10;99.90;;;;;;5114569;28;20459;-66
2021/09/24 02:23:56;;;;;;;9.45;4.43;;;15.10;99.90;;;;;;5117469;27;20094;-67
2021/09/24 02:26:22;;;;;;;7.95;3.78;;;15.10;99.90;;;;;;5119199;27;20019;-67
2021/09/24 02:28:47;;;;;;;12.57;4.43;;;15.00;99.90;;;;;;5121342;27;20115;-67
2021/09/24 02:31:13;;;;;;;9.32;3.30;;;15.00;99.90;;;;;;5116458;27;20537;-67
2021/09/24 02:33:41;;;;;;;16.45;5.72;;;15.10;99.90;;;;;;5120223;27;20023;-66
2021/09/24 02:36:08;;;;;;;10.50;4.32;;;15.00;99.90;;;;;;5123001;27;20088;-68
2021/09/24 02:38:34;;;;;;;14.98;5.40;;;15.10;99.90;;;;;;5117768;27;20035;-66
2021/09/24 02:41:01;;;;;;;12.35;4.93;;;15.00;99.90;;;;;;5119863;27;20076;-66
2021/09/24 02:43:26;;;;;;;9.77;4.18;;;15.00;99.90;;;;;;5125204;27;20394;-66
2021/09/24 02:45:52;;;;;;;13.05;4.72;;;15.00;99.90;;;;;;5115329;27;20023;-67
2021/09/24 02:48:18;;;;;;;13.13;6.05;;;15.00;99.90;;;;;;5125078;27;20029;-66
2021/09/24 02:50:44;;;;;;;13.75;4.85;;;15.10;99.90;;;;;;5123608;27;20028;-66
2021/09/24 02:53:10;;;;;;;11.98;4.40;;;15.00;99.90;;;;;;5117304;27;20035;-66
2021/09/24 02:55:35;;;;;;;14.68;5.45;;;15.00;99.90;;;;;;5117037;27;20028;-66
2021/09/24 02:58:01;;;;;;;12.65;4.35;;;15.10;99.90;;;;;;5118689;27;20513;-66
2021/09/24 03:00:27;;;;;;;11.35;4.93;;;15.00;99.90;;;;;;5116943;27;20016;-66
2021/09/24 03:02:53;;;;;;;14.90;6.35;;;15.10;99.90;;;;;;5118186;27;20030;-67
2021/09/24 03:05:19;;;;;;;10.85;4.07;;;15.10;99.90;;;;;;5114124;27;20046;-66
2021/09/24 03:07:44;;;;;;;15.60;5.45;;;15.00;99.90;;;;;;5112763;27;20507;-66
2021/09/24 03:10:11;;;;;;;13.00;4.90;;;15.10;99.90;;;;;;5112024;27;20535;-66
2021/09/24 03:12:37;;;;;;;15.07;5.68;;;15.00;99.90;;;;;;5118456;27;20052;-67
2021/09/24 03:15:06;;;;;;;15.57;5.53;;;15.10;99.90;;;;;;5119004;27;20102;-67
2021/09/24 03:17:31;;;;;;;15.82;5.13;;;15.00;99.90;;;;;;5112144;27;20016;-66
2021/09/24 03:19:57;;;;;;;11.85;5.80;;;15.10;99.90;;;;;;5108578;27;20027;-66
2021/09/24 03:22:22;;;;;;;12.77;4.85;;;15.10;99.90;;;;;;5112825;27;20034;-66
2021/09/24 03:24:48;;;;;;;12.82;5.00;;;15.00;99.90;;;;;;5125264;27;20026;-67
2021/09/24 03:27:14;;;;;;;12.55;4.20;;;15.00;99.90;;;;;;5110150;27;20084;-66
2021/09/24 03:29:40;;;;;;;12.38;4.97;;;15.00;99.90;;;;;;5109145;28;20038;-66
2021/09/24 03:32:06;;;;;;;14.98;5.57;;;15.00;99.90;;;;;;5109205;28;20046;-67
2021/09/24 03:34:32;;;;;;;16.42;6.28;;;15.00;99.90;;;;;;5118305;27;20023;-67
2021/09/24 03:36:58;;;;;;;14.48;5.55;;;15.00;99.90;;;;;;5118976;27;20374;-67
2021/09/24 03:39:23;;;;;;;13.18;5.28;;;15.00;99.90;;;;;;5110106;27;20032;-67
2021/09/24 03:41:49;;;;;;;11.35;4.93;;;15.00;99.90;;;;;;5126078;27;20471;-67
2021/09/24 03:44:15;;;;;;;13.57;4.63;;;15.00;99.90;;;;;;5117826;27;20061;-66
2021/09/24 03:46:41;;;;;;;16.45;4.38;;;15.00;99.90;;;;;;5108379;28;20055;-66
2021/09/24 03:49:07;;;;;;;14.52;6.20;;;15.10;99.90;;;;;;5115510;27;20023;-66
2021/09/24 03:51:33;;;;;;;17.23;5.90;;;15.00;99.90;;;;;;5120171;27;20031;-66
2021/09/24 03:53:58;;;;;;;14.52;5.97;;;15.00;99.90;;;;;;5118587;27;20465;-67
2021/09/24 03:56:24;;;;;;;15.98;5.88;;;15.10;99.90;;;;;;5120291;27;20019;-67
2021/09/24 03:58:50;;;;;;;12.15;4.90;;;15.10;99.90;;;;;;5119596;27;20077;-67
2021/09/24 04:01:16;;;;;;;12.82;4.82;;;15.10;99.90;;;;;;5116491;27;20035;-66
2021/09/24 04:03:43;;;;;;;14.90;5.45;;;15.10;99.90;;;;;;5112944;27;20020;-67
2021/09/24 04:06:12;;;;;;;16.48;5.55;;;15.10;99.90;;;;;;5117412;27;20370;-67
2021/09/24 04:08:38;;;;;;;15.13;5.90;;;15.10;99.90;;;;;;5111195;27;20055;-66
2021/09/24 04:11:04;;;;;;;13.27;5.20;;;15.10;99.90;;;;;;5112255;27;20140;-67
2021/09/24 04:13:30;;;;;;;14.20;5.22;;;15.00;99.90;;;;;;5112930;27;20024;-66
2021/09/24 04:15:55;;;;;;;20.17;6.25;;;15.10;99.90;;;;;;5110346;27;20080;-66
2021/09/24 04:18:21;;;;;;;17.35;6.97;;;15.10;99.90;;;;;;5107994;28;20124;-66
2021/09/24 04:20:47;;;;;;;13.88;5.60;;;15.00;99.90;;;;;;5116111;27;20106;-67
2021/09/24 04:23:14;;;;;;;20.83;6.15;;;15.00;99.90;;;;;;5113395;27;20903;-66
2021/09/24 04:25:40;;;;;;;14.05;5.80;;;15.10;99.90;;;;;;5122513;27;20160;-67
2021/09/24 04:28:06;;;;;;;15.45;6.00;;;15.10;99.90;;;;;;5107089;28;20031;-66
2021/09/24 04:30:32;;;;;;;21.02;7.15;;;15.00;99.90;;;;;;5117338;27;20035;-67
2021/09/24 04:32:57;;;;;;;15.65;7.18;;;15.00;99.90;;;;;;5107293;28;20024;-67
2021/09/24 04:35:24;;;;;;;17.23;6.40;;;15.00;99.90;;;;;;5113990;27;20036;-67
2021/09/24 04:37:53;;;;;;;16.35;6.75;;;15.00;99.90;;;;;;5117766;27;20077;-67
2021/09/24 04:40:19;;;;;;;16.02;6.78;;;15.00;99.90;;;;;;5117414;27;20439;-67
2021/09/24 04:42:45;;;;;;;19.25;7.95;;;15.00;99.90;;;;;;5119513;27;20504;-66
2021/09/24 04:45:12;;;;;;;17.23;5.70;;;15.00;99.90;;;;;;5116169;27;20020;-67
2021/09/24 04:47:37;;;;;;;19.23;8.43;;;15.10;99.90;;;;;;5117747;27;20027;-66
2021/09/24 04:50:05;;;;;;;19.45;7.90;;;15.00;99.90;;;;;;5114150;27;20024;-66
2021/09/24 04:52:31;;;;;;;18.15;6.88;;;15.00;99.90;;;;;;5125013;27;20031;-66
2021/09/24 04:54:56;;;;;;;16.00;6.03;;;15.10;99.90;;;;;;5122411;27;20019;-66
2021/09/24 04:57:22;;;;;;;18.55;6.70;;;15.00;99.90;;;;;;5116179;27;20068;-67
2021/09/24 04:59:48;;;;;;;15.93;7.95;;;14.90;99.90;;;;;;5118843;27;20024;-67
2021/09/24 05:02:14;;;;;;;18.63;6.78;;;15.00;99.90;;;;;;5109750;27;20201;-66
2021/09/24 05:04:44;;;;;;;18.25;6.65;;;15.00;99.90;;;;;;5111359;27;20069;-66
2021/09/24 05:07:10;;;;;;;23.47;6.83;;;15.00;99.90;;;;;;5108968;27;20451;-67
2021/09/24 05:09:36;;;;;;;22.55;7.50;;;15.00;99.90;;;;;;5109525;28;20333;-67
2021/09/24 05:12:02;;;;;;;18.50;6.75;;;15.10;99.90;;;;;;5116298;27;20038;-67
2021/09/24 05:14:28;;;;;;;25.27;8.18;;;15.10;99.90;;;;;;5119201;27;20015;-66
2021/09/24 05:16:53;;;;;;;20.80;8.40;;;15.10;99.90;;;;;;5110267;28;20076;-66
2021/09/24 05:19:19;;;;;;;20.98;7.80;;;15.10;99.90;;;;;;5112612;28;20015;-66
2021/09/24 05:21:45;;;;;;;19.98;7.63;;;15.00;99.90;;;;;;5108293;28;20713;-67
2021/09/24 05:24:11;;;;;;;19.98;8.23;;;15.00;99.90;;;;;;5118006;28;20072;-66
2021/09/24 05:26:37;;;;;;;17.60;7.13;;;15.10;99.90;;;;;;5108780;28;20028;-66
2021/09/24 05:29:03;;;;;;;21.90;7.35;;;15.10;99.90;;;;;;5109124;28;20024;-67
2021/09/24 05:31:29;;;;;;;17.52;6.13;;;15.10;99.90;;;;;;5116128;28;20551;-67
2021/09/24 05:33:55;;;;;;;18.00;6.40;;;15.10;99.90;;;;;;5114831;28;20063;-66
2021/09/24 05:36:21;;;;;;;18.63;6.88;;;15.10;99.90;;;;;;5110569;28;20027;-66
2021/09/24 05:38:46;;;;;;;21.00;8.18;;;15.10;99.90;;;;;;5117104;28;20481;-67
2021/09/24 05:41:12;;;;;;;19.33;7.30;;;15.20;99.90;;;;;;5119416;28;20024;-66
2021/09/24 05:43:38;;;;;;;16.70;7.13;;;15.20;99.90;;;;;;5120537;28;20501;-67
2021/09/24 05:46:04;;;;;;;17.90;6.68;;;15.10;99.90;;;;;;5112122;28;20032;-66
2021/09/24 05:48:30;;;;;;;21.48;6.88;;;15.20;99.90;;;;;;5120887;28;20020;-66
2021/09/24 05:50:56;;;;;;;21.52;7.60;;;15.20;99.90;;;;;;5110871;28;20023;-66
2021/09/24 05:53:22;;;;;;;20.95;7.20;;;15.20;99.90;;;;;;5116655;28;20031;-66
2021/09/24 05:55:48;;;;;;;22.65;8.30;;;15.20;99.90;;;;;;5122082;28;20011;-66
2021/09/24 05:58:14;;;;;;;13.43;4.05;;;15.30;99.90;;;;;;5123811;27;20028;-66
2021/09/24 06:00:39;;;;;;;13.45;5.38;;;15.30;99.90;;;;;;5121880;27;20032;-67
2021/09/24 06:03:06;;;;;;;16.42;5.97;;;15.30;99.90;;;;;;5113778;27;20093;-66
2021/09/24 06:05:32;;;;;;;16.52;6.18;;;15.30;99.90;;;;;;5115136;27;20020;-66
2021/09/24 06:07:58;;;;;;;13.23;5.45;;;15.40;99.90;;;;;;5113005;27;20086;-66
2021/09/24 06:10:24;;;;;;;17.85;6.88;;;15.40;99.90;;;;;;5115265;27;20051;-67
2021/09/24 06:12:50;;;;;;;7.10;3.97;;;15.40;99.90;;;;;;5115413;27;20400;-67
2021/09/24 06:15:21;;;;;;;10.73;4.47;;;15.40;99.90;;;;;;5121426;27;20027;-66
2021/09/24 06:17:47;;;;;;;16.08;6.95;;;15.40;99.90;;;;;;5119570;27;20011;-66
2021/09/24 06:20:13;;;;;;;15.43;6.45;;;15.40;99.90;;;;;;5118934;27;20038;-66
2021/09/24 06:22:40;;;;;;;22.13;6.70;;;15.40;99.90;;;;;;5116690;27;20032;-67
2021/09/24 06:25:06;;;;;;;14.38;5.22;;;15.50;99.90;;;;;;5124491;27;20035;-66
2021/09/24 06:27:32;;;;;;;15.88;5.90;;;15.60;99.90;;;;;;5110653;27;20039;-66
2021/09/24 06:29:58;;;;;;;12.52;5.22;;;15.70;99.90;;;;;;5112041;27;20027;-67
2021/09/24 06:32:24;;;;;;;18.10;6.00;;;15.70;99.90;;;;;;5118682;27;20043;-66
2021/09/24 06:34:50;;;;;;;16.50;6.10;;;15.60;99.90;;;;;;5121983;27;20026;-66
2021/09/24 06:37:17;;;;;;;13.18;5.65;;;15.70;99.90;;;;;;5115911;27;20098;-67
2021/09/24 06:39:43;;;;;;;16.35;5.40;;;15.80;99.90;;;;;;5114620;27;20020;-67
2021/09/24 06:42:09;;;;;;;19.42;5.28;;;15.80;99.90;;;;;;5124680;27;20137;-66
2021/09/24 06:44:35;;;;;;;15.38;6.13;;;15.80;99.90;;;;;;5120021;27;20524;-67
2021/09/24 06:47:01;;;;;;;14.80;5.20;;;15.80;99.90;;;;;;5116455;27;20044;-66
2021/09/24 06:49:27;;;;;;;15.15;5.30;;;15.80;99.90;;;;;;5118296;27;20126;-66
2021/09/24 06:51:53;;;;;;;19.02;5.60;;;15.90;99.90;;;;;;5115650;27;20042;-67
2021/09/24 06:54:20;;;;;;;14.27;5.43;;;16.00;99.90;;;;;;5119953;27;20067;-66
2021/09/24 06:56:46;;;;;;;14.23;5.63;;;16.00;99.90;;;;;;5116093;27;20032;-66
2021/09/24 06:59:13;;;;;;;15.60;5.40;;;16.10;99.90;;;;;;5119105;27;20015;-67
2021/09/24 07:01:39;;;;;;;14.55;5.05;;;16.20;99.90;;;;;;5122895;27;20023;-67
2021/09/24 07:04:04;;;;;;;8.48;3.53;;;16.20;99.90;;;;;;5120230;27;20024;-67
2021/09/24 07:06:30;;;;;;;14.05;5.38;;;16.30;99.90;;;;;;5117015;27;20035;-67
2021/09/24 07:08:56;;;;;;;12.50;5.30;;;16.20;99.90;;;;;;5112537;27;20039;-66
2021/09/24 07:11:24;;;;;;;12.40;4.45;;;16.20;99.90;;;;;;5114946;27;20018;-67
2021/09/24 07:13:50;;;;;;;8.82;3.40;;;16.20;99.90;;;;;;5112545;27;20114;-66
2021/09/24 07:16:15;;;;;;;13.35;5.40;;;16.30;99.90;;;;;;5118187;27;20087;-67
2021/09/24 07:18:41;;;;;;;15.20;5.13;;;16.20;99.90;;;;;;5114902;27;20073;-66
2021/09/24 07:21:07;;;;;;;14.75;5.65;;;16.20;99.90;;;;;;5115488;27;20055;-66
2021/09/24 07:23:33;;;;;;;18.65;6.07;;;16.30;99.90;;;;;;5122023;27;20065;-66
2021/09/24 07:25:58;;;;;;;16.52;5.40;;;16.40;99.90;;;;;;5112899;27;20074;-66
2021/09/24 07:28:24;;;;;;;12.52;4.70;;;16.50;99.90;;;;;;5113969;27;20024;-67
2021/09/24 07:30:49;;;;;;;13.65;4.53;;;16.50;99.90;;;;;;5109929;28;20042;-66
2021/09/24 07:33:15;;;;;;;14.77;5.47;;;16.40;99.90;;;;;;5118267;27;20026;-66
2021/09/24 07:35:41;;;;;;;15.02;4.78;;;16.40;99.90;;;;;;5119051;27;20032;-67
2021/09/24 07:38:06;;;;;;;14.50;5.00;;;16.40;99.90;;;;;;5116185;27;20668;-67
2021/09/24 07:40:32;;;;;;;20.08;5.95;;;16.50;99.90;;;;;;5113484;27;20076;-66
2021/09/24 07:42:58;;;;;;;18.02;6.65;;;16.50;99.90;;;;;;5114389;27;20027;-66
2021/09/24 07:45:23;;;;;;;14.00;5.03;;;16.40;99.90;;;;;;5111196;27;20038;-67
2021/09/24 07:47:49;;;;;;;15.50;5.78;;;16.30;99.90;;;;;;5117630;27;20039;-66
2021/09/24 07:50:15;;;;;;;15.35;5.63;;;16.30;99.90;;;;;;5120722;27;20047;-67
2021/09/24 07:52:41;;;;;;;16.45;4.95;;;16.30;99.90;;;;;;5113847;27;20356;-67
2021/09/24 07:55:08;;;;;;;11.02;4.13;;;16.30;99.90;;;;;;5123043;27;20024;-67
2021/09/24 07:57:34;;;;;;;18.50;6.47;;;16.40;99.90;;;;;;5123748;27;20110;-67
2021/09/24 08:00:00;;;;;;;15.45;6.15;;;16.40;99.90;;;;;;5115837;27;20153;-66
2021/09/24 08:02:26;;;;;;;11.77;4.38;;;16.30;99.90;;;;;;5109900;27;20449;-67
2021/09/24 08:04:51;;;;;;;15.02;4.82;;;16.30;99.90;;;;;;5121508;27;20073;-66
2021/09/24 08:07:17;;;;;;;9.18;3.75;;;16.20;99.90;;;;;;5115011;27;20046;-66
2021/09/24 08:09:43;;;;;;;22.98;6.55;;;16.30;99.90;;;;;;5108000;28;20050;-66
2021/09/24 08:12:09;;;;;;;7.20;3.13;;;16.30;99.90;;;;;;5110324;27;20024;-67
2021/09/24 08:14:35;;;;;;;17.75;5.90;;;16.20;99.90;;;;;;5108635;28;20024;-66
2021/09/24 08:17:02;;;;;;;14.23;5.47;;;16.20;99.90;;;;;;5110010;27;20392;-68
2021/09/24 08:19:28;;;;;;;7.93;3.65;;;16.30;99.90;;;;;;5113259;27;20363;-67
2021/09/24 08:21:53;;;;;;;17.45;5.70;;;16.40;99.90;;;;;;5112112;27;20031;-67
2021/09/24 08:24:19;;;;;;;14.80;5.53;;;16.50;99.90;;;;;;5119961;27;20100;-66
2021/09/24 08:26:45;;;;;;;17.77;5.97;;;16.40;99.90;;;;;;5107998;28;20091;-66
2021/09/24 08:29:10;;;;;;;16.00;5.70;;;16.60;99.90;;;;;;5110219;27;20815;-66
2021/09/24 08:31:36;;;;;;;13.68;5.38;;;16.80;99.90;;;;;;5119752;27;20454;-66
2021/09/24 08:34:03;;;;;;;14.25;5.43;;;16.80;99.90;;;;;;5118164;27;20526;-66
2021/09/24 08:36:28;;;;;;;16.05;5.78;;;16.90;99.90;;;;;;5117325;27;20031;-67
2021/09/24 08:38:54;;;;;;;10.38;4.03;;;16.70;99.90;;;;;;5116611;27;20026;-67
2021/09/24 08:41:25;;;;;;;11.80;4.22;;;16.70;99.90;;;;;;5118711;27;20073;-66
2021/09/24 08:43:51;;;;;;;15.10;6.18;;;16.70;99.90;;;;;;5116818;27;20019;-67
2021/09/24 08:46:17;;;;;;;18.10;6.03;;;16.60;99.90;;;;;;5115371;27;20027;-67
2021/09/24 08:48:46;;;;;;;13.88;6.10;;;16.60;99.90;;;;;;5115728;27;20114;-66
2021/09/24 08:51:12;;;;;;;11.90;4.47;;;16.50;99.90;;;;;;5121255;27;20393;-67
2021/09/24 08:53:38;;;;;;;16.70;5.88;;;16.40;99.90;;;;;;5124421;27;20285;-66
2021/09/24 08:56:05;;;;;;;18.65;5.50;;;16.20;99.90;;;;;;5118542;27;20015;-67
2021/09/24 08:58:30;;;;;;;17.45;6.63;;;16.30;99.90;;;;;;5119870;27;20015;-66
2021/09/24 09:00:56;;;;;;;14.10;6.00;;;16.50;99.90;;;;;;5109038;27;20032;-67
2021/09/24 09:03:23;;;;;;;9.57;3.65;;;16.70;99.90;;;;;;5110697;27;20383;-67
2021/09/24 09:05:51;;;;;;;9.95;4.15;;;16.60;99.90;;;;;;5109474;27;20039;-66
2021/09/24 09:08:27;;;;;;;7.55;4.40;;;16.60;99.90;;;;;;5116655;27;20535;-67
2021/09/24 09:11:03;;;;;;;11.18;4.38;;;16.60;99.90;;;;;;5112861;28;20023;-67
2021/09/24 09:13:39;;;;;;;6.72;3.25;;;16.60;99.90;;;;;;5115443;27;20020;-67
2021/09/24 09:16:12;;;;;;;4.55;2.47;;;16.60;99.90;;;;;;5109630;27;20517;-66
2021/09/24 09:18:41;;;;;;;6.18;2.83;;;16.60;99.90;;;;;;5107720;28;20494;-66
2021/09/24 09:21:09;;;;;;;8.77;3.67;;;16.50;99.90;;;;;;5115876;28;20019;-66
2021/09/24 09:23:37;;;;;;;14.50;4.60;;;16.40;99.90;;;;;;5113997;28;20023;-67
2021/09/24 09:26:07;;;;;;;7.30;3.03;;;16.40;99.90;;;;;;5119235;27;20027;-66
2021/09/24 09:28:38;;;;;;;9.07;3.53;;;16.30;99.90;;;;;;5114000;28;20107;-67
2021/09/24 09:31:27;;;;;;;12.93;4.40;;;16.50;99.90;;;;;;5111422;28;20028;-66
2021/09/24 09:33:59;;;;;;;8.88;4.03;;;16.50;99.90;;;;;;5120689;27;20059;-67
2021/09/24 09:36:38;;;;;;;7.28;3.45;;;16.40;99.90;;;;;;5118913;27;20023;-66
2021/09/24 09:39:14;;;;;;;12.48;4.30;;;16.40;99.90;;;;;;5120317;27;20137;-66
2021/09/24 09:41:49;;;;;;;11.15;3.65;;;16.40;99.90;;;;;;5121354;27;20435;-67
2021/09/24 09:44:25;;;;;;;5.65;2.92;;;16.50;99.90;;;;;;5110540;27;20096;-67
2021/09/24 09:46:51;;;;;;;10.40;3.67;;;16.50;99.90;;;;;;5119787;27;20394;-66
2021/09/24 09:49:17;;;;;;;9.30;4.85;;;16.50;99.90;;;;;;5118956;27;20019;-67
2021/09/24 09:51:46;;;;;;;12.80;3.90;;;16.50;99.90;;;;;;5118838;27;20049;-66
2021/09/24 09:54:27;;;;;;;8.38;2.72;;;16.60;99.90;;;;;;5115035;27;20386;-67
2021/09/24 09:57:27;;;;;;;10.52;3.63;;;16.50;99.90;;;;;;5122396;27;20015;-66
2021/09/24 09:59:54;;;;;;;8.30;2.72;;;16.50;99.90;;;;;;5122923;27;20023;-67
2021/09/24 10:02:21;;;;;;;14.23;4.55;;;16.50;99.90;;;;;;5112227;27;20096;-66
2021/09/24 10:04:52;;;;;;;11.20;3.70;;;16.40;99.90;;;;;;5115200;27;20111;-66
2021/09/24 10:07:34;;;;;;;7.03;3.40;;;16.40;99.90;;;;;;5119050;27;20055;-67
2021/09/24 10:10:15;;;;;;;12.27;4.65;;;16.50;99.90;;;;;;5110574;28;20467;-67
2021/09/24 10:12:41;;;;;;;;;;;16.60;99.90;;;;;;5116287;27;20019;-66
2021/09/24 10:15:09;;;;;;;9.40;3.10;;;16.70;99.90;;;;;;5112953;27;20326;-66
2021/09/24 10:17:35;;;;;;;9.95;3.20;;;16.80;99.90;;;;;;5119653;27;20436;-66
2021/09/24 10:20:01;;;;;;;9.73;3.38;;;16.80;99.90;;;;;;5120344;27;20029;-66
2021/09/24 10:22:27;;;;;;;13.05;4.30;;;16.80;99.90;;;;;;5112249;27;20019;-67
2021/09/24 10:24:54;;;;;;;10.95;4.43;;;16.90;99.90;;;;;;5121225;27;20035;-67
2021/09/24 10:27:27;;;;;;;14.65;3.47;;;16.80;99.90;;;;;;5112082;27;20030;-66
2021/09/24 10:29:56;;;;;;;10.65;4.57;;;17.00;99.90;;;;;;5119699;27;20048;-67
2021/09/24 10:32:27;;;;;;;6.28;2.47;;;17.20;99.90;;;;;;5110360;28;20024;-67
2021/09/24 10:35:08;;;;;;;11.00;4.15;;;17.30;99.90;;;;;;5120058;27;20120;-66
2021/09/24 10:37:39;;;;;;;12.57;4.72;;;17.50;99.90;;;;;;5122173;27;20116;-67
2021/09/24 10:40:35;;;;;;;14.30;4.85;;;17.60;99.90;;;;;;5119562;27;20494;-66
2021/09/24 10:43:12;;;;;;;11.35;3.65;;;17.60;99.90;;;;;;5101670;27;20666;-66
2021/09/24 10:45:40;;;;;;;8.00;2.80;;;17.60;99.90;;;;;;5118441;27;20378;-67
2021/09/24 10:48:16;;;;;;;12.60;5.32;;;17.70;99.90;;;;;;5125131;27;20016;-66
2021/09/24 10:51:00;;;;;;;8.50;3.40;;;17.70;99.90;;;;;;5111488;27;20027;-67
2021/09/24 10:53:34;;;;;;;9.73;3.58;;;17.80;99.90;;;;;;5122984;27;20019;-66
2021/09/24 10:55:59;;;;;;;9.30;3.72;;;18.40;99.90;;;;;;5118990;27;20019;-66
2021/09/24 10:58:28;;;;;;;10.77;3.40;;;18.60;99.90;;;;;;5117694;27;20099;-67
2021/09/24 11:00:59;;;;;;;17.10;7.80;;;18.80;99.90;;;;;;5113042;27;20467;-70
2021/09/24 11:03:27;;;;;;;7.68;3.53;;;18.40;99.90;;;;;;5118045;27;20114;-66
2021/09/24 11:06:05;;;;;;;10.05;4.93;;;17.80;99.90;;;;;;5117328;27;20467;-67
2021/09/24 11:08:36;;;;;;;8.90;3.58;;;17.80;99.90;;;;;;5117035;27;20062;-67
2021/09/24 11:11:21;;;;;;;10.93;3.63;;;17.90;99.90;;;;;;5114239;27;20474;-67
2021/09/24 11:13:49;;;;;;;8.00;3.08;;;17.80;99.90;;;;;;5118026;27;20059;-66
2021/09/24 11:16:18;;;;;;;9.63;3.55;;;17.70;99.90;;;;;;5109353;27;20372;-66
2021/09/24 11:18:53;;;;;;;10.60;3.10;;;17.80;99.90;;;;;;5109966;28;20063;-67
2021/09/24 11:21:23;;;;;;;6.82;2.63;;;18.30;99.90;;;;;;5118667;27;20058;-67
2021/09/24 11:23:52;;;;;;;11.68;3.00;;;18.80;99.90;;;;;;5119726;27;20019;-67
2021/09/24 11:26:25;;;;;;;5.70;2.78;;;19.50;99.90;;;;;;5115662;27;20055;-67
2021/09/24 11:29:16;;;;;;;5.93;2.33;;;19.70;99.90;;;;;;5109548;28;20023;-67
2021/09/24 11:31:54;;;;;;;7.30;2.15;;;19.80;99.90;;;;;;5125422;27;20059;-67
2021/09/24 11:34:43;;;;;;;6.57;2.40;;;20.10;99.90;;;;;;5117731;27;20424;-67
2021/09/24 11:37:25;;;;;;;8.50;3.15;;;20.30;99.90;;;;;;5125734;27;20019;-67
2021/09/24 11:40:13;;;;;;;6.18;2.35;;;20.50;99.90;;;;;;5118256;27;20027;-67
2021/09/24 11:42:42;;;;;;;8.15;2.75;;;20.90;99.90;;;;;;5116451;27;20058;-67
2021/09/24 11:45:16;;;;;;;9.13;2.90;;;20.60;99.90;;;;;;5116811;27;20015;-67
2021/09/24 11:47:44;;;;;;;9.35;3.50;;;20.60;99.90;;;;;;5114691;27;20030;-66
2021/09/24 11:50:18;;;;;;;7.97;2.58;;;20.00;99.90;;;;;;5122171;27;20023;-66
2021/09/24 11:52:47;;;;;;;5.82;2.25;;;19.90;99.90;;;;;;5126229;27;20031;-68
2021/09/24 11:55:23;;;;;;;5.97;2.47;;;20.10;99.90;;;;;;5121213;27;20161;-67
2021/09/24 11:58:11;;;;;;;6.72;2.42;;;20.30;99.90;;;;;;5117848;27;20394;-67
2021/09/24 12:00:38;;;;;;;5.95;1.90;;;20.00;99.90;;;;;;5110620;27;20019;-67
2021/09/24 12:03:23;;;;;;;6.30;2.20;;;19.90;99.90;;;;;;5111248;27;20488;-67
2021/09/24 12:06:08;;;;;;;5.88;2.13;;;20.00;99.90;;;;;;5113428;27;20026;-66
2021/09/24 12:08:45;;;;;;;6.05;2.42;;;19.90;99.90;;;;;;5111716;27;20537;-67
2021/09/24 12:11:17;;;;;;;5.95;2.13;;;19.90;99.90;;;;;;5117177;27;20035;-67
2021/09/24 12:13:48;;;;;;;7.65;2.63;;;19.90;99.90;;;;;;5117894;27;20023;-66
2021/09/24 12:16:20;;;;;;;6.13;2.40;;;20.30;99.90;;;;;;5107774;28;20080;-67
2021/09/24 12:19:12;;;;;;;6.90;2.20;;;20.20;99.90;;;;;;5113919;27;20015;-66
2021/09/24 12:21:37;;;;;;;4.93;1.95;;;20.30;99.90;;;;;;5115784;27;20016;-67
2021/09/24 12:24:08;;;;;;;5.38;1.88;;;20.20;99.90;;;;;;5115455;27;20141;-66
2021/09/24 12:26:36;;;;;;;6.72;2.22;;;19.90;99.90;;;;;;5115696;27;20040;-67
2021/09/24 12:29:11;;;;;;;9.60;2.88;;;19.90;99.90;;;;;;5111827;27;20019;-67
2021/09/24 12:31:52;;;;;;;6.03;2.15;;;20.10;99.90;;;;;;5116473;27;20088;-67
2021/09/24 12:34:21;;;;;;;6.40;2.17;;;20.20;99.90;;;;;;5113007;27;20076;-67
2021/09/24 12:36:50;;;;;;;7.53;2.17;;;19.90;99.90;;;;;;5112705;27;20050;-67
2021/09/24 12:39:18;;;;;;;8.32;2.22;;;19.70;99.90;;;;;;5118942;27;20402;-67
2021/09/24 12:41:44;;;;;;;7.80;2.00;;;19.90;99.90;;;;;;5117480;27;20019;-66
2021/09/24 12:44:10;;;;;;;6.30;2.20;;;20.60;99.90;;;;;;5115399;27;20127;-67